Rice Lake, WI

1:58 AM CST on December 08, 2016 (GMT -0600)
Moon Lake Estates | | Change Station

Elev 1132 ft 45.47 °N, 91.73 °W | Updated 17 seconds ago

Snow
Snow
14.5 °F
Feels Like 2 °F
N
10.0
Wind Variable Wind from West

Today
High -- | Low -- °F
--% Chance of Precip.
Yesterday
High -- | Low -- °F
Precip. -- in
Pressure 30.07 in
Visibility 7.0 miles
Clouds Overcast 1900 ft
Windchill 2 °F
Dew Point 12 °F
Humidity 90%
Rainfall 0.00 in
Snow Depth Not available.
7:34 AM 4:23 PM
First Quarter, 61% visible
METAR KRPD 080755Z AUTO 25011KT 7SM -SN OVC019 M09/M11 A3007 RMK AO2 T10901113
Pressure 30.07 in
Visibility 7.0 miles
Clouds Overcast 1900 ft
Windchill 2 °F
Dew Point 12 °F
Humidity 90%
Rainfall 0.00 in
Snow Depth Not available.
7:34 AM 4:23 PM
First Quarter, 61% visible
METAR KRPD 080755Z AUTO 25011KT 7SM -SN OVC019 M09/M11 A3007 RMK AO2 T10901113

10-Day Weather Forecast

Almanac

Astronomy

Dec. 08, 2016 Rise Set
Actual Time
Civil Twilight
Nautical Twilight
Astronomical Twilight
Moon
Length of Visible Light
Length of Day
Tomorrow will be .
, % of the Moon is Illuminated

Today's Extremes

State Highs State Lows

Community

WunderPhotos

Upload Photos

1,956,259 photos uploaded!

WunderBlog® & News

Nearby

Air Quality

  Air Quality AQ Index Pollutant
Not available.

Snow Depth

Station Depth Elevation

Earthquake Activity

City Distance Mag. Time & Date
Minimum magnitude displayed is 2.5.

Coastal Water Temperatures

Place Temperature

Stations

Nearby Weather Stations

Station Location Temp. Windchill Dew Point Humidity Wind Precip. Elev Updated Type
                   

Watches & Warnings

There are currently no watches in effect.